createdAt,value
2023-02-06T00:00:14.298Z,-6.05
2023-02-06T00:02:12.633Z,-6.07
2023-02-06T00:04:10.879Z,-6.07
2023-02-06T00:06:09.568Z,-6.06
2023-02-06T00:08:07.940Z,-6.09
2023-02-06T00:10:08.210Z,-6.05
2023-02-06T00:12:06.890Z,-5.93
2023-02-06T00:14:05.476Z,-5.76
2023-02-06T00:16:03.965Z,-5.75
2023-02-06T00:18:02.305Z,-5.83
2023-02-06T00:20:00.385Z,-5.86
2023-02-06T00:21:58.625Z,-5.91
2023-02-06T00:23:58.864Z,-5.97
2023-02-06T00:25:58.503Z,-5.99
2023-02-06T00:27:56.694Z,-6.06
2023-02-06T00:29:55.983Z,-6.10
2023-02-06T00:31:54.166Z,-6.06
2023-02-06T00:33:52.409Z,-5.98
2023-02-06T00:35:50.731Z,-5.92
2023-02-06T00:37:49.137Z,-5.99
2023-02-06T00:39:47.395Z,-5.97
2023-02-06T00:41:47.139Z,-6.01
2023-02-06T00:43:45.353Z,-6.07
2023-02-06T00:45:43.632Z,-6.10
2023-02-06T00:47:41.890Z,-6.07
2023-02-06T00:49:40.707Z,-6.09
2023-02-06T00:51:39.628Z,-6.09
2023-02-06T00:53:37.850Z,-6.13
2023-02-06T00:55:36.305Z,-6.17
2023-02-06T00:57:36.134Z,-6.20
2023-02-06T00:59:34.352Z,-6.19
2023-02-06T01:01:32.479Z,-6.11
2023-02-06T01:03:30.775Z,-6.12
2023-02-06T01:05:29.291Z,-6.15
2023-02-06T01:07:27.597Z,-6.17
2023-02-06T01:09:25.812Z,-6.16
2023-02-06T01:11:26.252Z,-6.21
2023-02-06T01:13:25.986Z,-6.17
2023-02-06T01:15:24.191Z,-6.13
2023-02-06T01:17:22.471Z,-6.12
2023-02-06T01:19:20.678Z,-6.15
2023-02-06T01:21:21.352Z,-6.19
2023-02-06T01:23:19.615Z,-6.15
2023-02-06T01:25:18.158Z,-6.17
2023-02-06T01:27:16.283Z,-6.18
2023-02-06T01:29:15.792Z,-6.16
2023-02-06T01:31:17.304Z,-6.20
2023-02-06T01:33:17.193Z,-6.24
2023-02-06T01:35:15.445Z,-6.21
2023-02-06T01:37:13.652Z,-6.22
2023-02-06T01:39:12.177Z,-6.30
2023-02-06T01:41:12.103Z,-6.29
2023-02-06T01:43:18.866Z,-6.31
2023-02-06T01:45:49.691Z,-6.42
2023-02-06T01:47:50.047Z,-6.41
2023-02-06T01:49:52.237Z,-6.40
2023-02-06T01:51:51.377Z,-6.39
2023-02-06T01:53:55.603Z,-6.41
2023-02-06T01:55:55.604Z,-6.44
2023-02-06T01:57:52.851Z,-6.44
2023-02-06T01:59:55.975Z,-6.41
2023-02-06T02:01:54.225Z,-6.35
2023-02-06T02:03:58.182Z,-6.38
2023-02-06T02:06:01.376Z,-6.33
2023-02-06T02:08:04.922Z,-6.18
2023-02-06T02:10:07.101Z,-6.18
2023-02-06T02:12:05.736Z,-6.32
2023-02-06T02:14:07.478Z,-6.45
2023-02-06T02:16:15.255Z,-6.57
2023-02-06T02:18:32.704Z,-6.58
2023-02-06T02:21:02.793Z,-6.60
2023-02-06T02:23:12.927Z,-6.56
2023-02-06T02:25:32.192Z,-6.54
2023-02-06T02:27:51.766Z,-6.54
2023-02-06T02:30:11.895Z,-6.60
2023-02-06T02:32:39.098Z,-6.60
2023-02-06T02:35:13.939Z,-6.63
2023-02-06T02:37:19.953Z,-6.66
2023-02-06T02:39:24.510Z,-6.65
2023-02-06T02:41:29.064Z,-6.66
2023-02-06T02:43:36.254Z,-6.68
2023-02-06T02:45:41.953Z,-6.75
2023-02-06T02:47:47.700Z,-6.80
2023-02-06T02:49:47.709Z,-6.84
2023-02-06T02:51:49.987Z,-6.90
2023-02-06T02:53:48.452Z,-6.91
2023-02-06T02:55:46.851Z,-6.97
2023-02-06T02:57:50.644Z,-6.94
2023-02-06T02:59:50.476Z,-6.94
2023-02-06T03:01:53.658Z,-6.97
2023-02-06T03:03:55.716Z,-6.87
2023-02-06T03:06:14.025Z,-6.86
2023-02-06T03:08:21.892Z,-6.84
2023-02-06T03:10:29.076Z,-6.82
2023-02-06T03:12:39.195Z,-6.80
2023-02-06T03:14:45.359Z,-6.74
2023-02-06T03:16:49.297Z,-6.68
2023-02-06T03:18:54.242Z,-6.65
2023-02-06T03:20:53.557Z,-6.64
2023-02-06T03:22:54.003Z,-6.65
2023-02-06T03:24:54.699Z,-6.65
2023-02-06T03:26:59.609Z,-6.65
2023-02-06T03:29:04.069Z,-6.63
2023-02-06T03:31:04.955Z,-6.66
2023-02-06T03:33:08.508Z,-6.64
2023-02-06T03:35:11.128Z,-6.60
2023-02-06T03:37:10.161Z,-6.61
2023-02-06T03:39:08.717Z,-6.63
2023-02-06T03:41:09.067Z,-6.65
2023-02-06T03:43:08.684Z,-6.65
2023-02-06T03:45:12.779Z,-6.65
2023-02-06T03:47:13.038Z,-6.59
2023-02-06T03:49:15.970Z,-6.60
2023-02-06T03:51:19.191Z,-6.57
2023-02-06T03:53:20.128Z,-6.55
2023-02-06T03:55:21.289Z,-6.57
2023-02-06T03:57:22.832Z,-6.58
2023-02-06T03:59:21.492Z,-6.58
2023-02-06T04:01:20.408Z,-6.59
2023-02-06T04:03:20.066Z,-6.65
2023-02-06T04:05:19.707Z,-6.68
2023-02-06T04:07:24.094Z,-6.74
2023-02-06T04:09:22.381Z,-6.77
2023-02-06T04:11:20.672Z,-6.80
2023-02-06T04:13:20.406Z,-6.82
2023-02-06T04:15:18.948Z,-6.78
2023-02-06T04:17:31.299Z,-6.79
2023-02-06T04:19:35.431Z,-6.78
2023-02-06T04:21:33.713Z,-6.80
2023-02-06T04:23:31.789Z,-6.79
2023-02-06T04:25:30.226Z,-6.81
2023-02-06T04:27:28.390Z,-6.80
2023-02-06T04:29:28.192Z,-6.38
2023-02-06T04:31:26.364Z,-6.29
2023-02-06T04:33:24.524Z,-6.52
2023-02-06T04:35:22.909Z,-6.65
2023-02-06T04:37:21.056Z,-6.70
2023-02-06T04:39:19.350Z,-6.75
2023-02-06T04:41:17.619Z,-6.80
2023-02-06T04:43:15.850Z,-6.84
2023-02-06T04:45:15.857Z,-6.86
2023-02-06T04:47:14.120Z,-6.87
2023-02-06T04:49:12.378Z,-6.86
2023-02-06T04:51:10.746Z,-6.84
2023-02-06T04:53:08.994Z,-6.85
2023-02-06T04:55:07.637Z,-6.91
2023-02-06T04:57:06.102Z,-6.94
2023-02-06T04:59:04.174Z,-7.03
2023-02-06T05:01:03.889Z,-7.13
2023-02-06T05:03:02.229Z,-7.13
2023-02-06T05:05:00.499Z,-7.14
2023-02-06T05:06:58.653Z,-7.21
2023-02-06T05:08:56.799Z,-7.27
2023-02-06T05:10:55.302Z,-7.29
2023-02-06T05:12:53.476Z,-7.34
2023-02-06T05:14:51.713Z,-7.34
2023-02-06T05:16:51.213Z,-7.29
2023-02-06T05:18:53.556Z,-7.32
2023-02-06T05:20:51.901Z,-7.35
2023-02-06T05:22:50.223Z,-7.38
2023-02-06T05:24:48.462Z,-7.41
2023-02-06T05:26:46.715Z,-7.41
2023-02-06T05:28:44.926Z,-7.41
2023-02-06T05:30:43.442Z,-7.43
2023-02-06T05:32:43.054Z,-7.42
2023-02-06T05:34:41.245Z,-7.47
2023-02-06T05:36:39.510Z,-7.53
2023-02-06T05:38:37.740Z,-7.54
2023-02-06T05:40:36.001Z,-7.53
2023-02-06T05:42:34.214Z,-7.48
2023-02-06T05:44:32.315Z,-7.44
2023-02-06T05:46:37.365Z,-7.42
2023-02-06T05:48:58.794Z,-7.36
2023-02-06T05:50:57.665Z,-7.34
2023-02-06T05:52:55.838Z,-7.31
2023-02-06T05:54:54.028Z,-7.27
2023-02-06T05:56:52.293Z,-7.29
2023-02-06T05:58:50.494Z,-7.26
2023-02-06T06:00:49.021Z,-7.23
2023-02-06T06:02:47.930Z,-7.22
2023-02-06T06:04:49.979Z,-7.13
2023-02-06T06:06:48.303Z,-7.07
2023-02-06T06:08:46.625Z,-7.03
2023-02-06T06:10:44.828Z,-6.95
2023-02-06T06:12:42.982Z,-6.88
2023-02-06T06:14:41.074Z,-6.84
2023-02-06T06:16:40.814Z,-6.79
2023-02-06T06:18:55.799Z,-6.71
2023-02-06T06:20:55.258Z,-6.65
2023-02-06T06:22:53.531Z,-6.63
2023-02-06T06:24:51.663Z,-6.55
2023-02-06T06:26:50.018Z,-6.46
2023-02-06T06:28:48.216Z,-6.38
2023-02-06T06:30:46.562Z,-6.40
2023-02-06T06:32:44.867Z,-6.30
2023-02-06T06:34:43.105Z,-6.28
2023-02-06T06:36:42.770Z,-6.18
2023-02-06T06:38:41.174Z,-6.00
2023-02-06T06:40:39.915Z,-5.99
2023-02-06T06:42:38.360Z,-5.90
2023-02-06T06:44:36.690Z,-5.81
2023-02-06T06:46:34.732Z,-5.72
2023-02-06T06:48:33.512Z,-5.63
2023-02-06T06:50:31.799Z,-5.50
2023-02-06T06:52:31.364Z,-5.40
2023-02-06T06:54:29.630Z,-5.37
2023-02-06T06:56:28.175Z,-5.24
2023-02-06T06:58:26.316Z,-5.06
2023-02-06T07:00:24.570Z,-5.00
2023-02-06T07:02:22.726Z,-5.07
2023-02-06T07:04:21.776Z,-5.07
2023-02-06T07:06:20.010Z,-5.19
2023-02-06T07:08:19.635Z,-5.15
2023-02-06T07:10:18.286Z,-5.13
2023-02-06T07:12:16.588Z,-5.06
2023-02-06T07:14:14.865Z,-5.27
2023-02-06T07:16:13.782Z,-5.13
2023-02-06T07:18:14.182Z,-5.09
2023-02-06T07:20:13.217Z,-5.08
2023-02-06T07:22:11.438Z,-5.07
2023-02-06T07:24:11.157Z,-4.98
2023-02-06T07:26:09.292Z,-4.90
2023-02-06T07:28:07.731Z,-4.80
2023-02-06T07:30:06.712Z,-4.69
2023-02-06T07:32:05.659Z,-4.38
2023-02-06T07:34:03.764Z,-4.18
2023-02-06T07:36:03.823Z,-4.05
2023-02-06T07:38:02.409Z,-4.29
2023-02-06T07:40:03.425Z,-4.14
2023-02-06T07:42:01.688Z,-4.01
2023-02-06T07:44:13.333Z,-3.99
2023-02-06T07:46:11.669Z,-3.85
2023-02-06T07:48:10.326Z,-3.88
2023-02-06T07:50:08.846Z,-3.92
2023-02-06T07:52:07.157Z,-4.09
2023-02-06T07:54:05.660Z,-4.24
2023-02-06T07:56:11.064Z,-4.09
2023-02-06T07:58:12.076Z,-3.98
2023-02-06T08:00:11.390Z,-3.88
2023-02-06T08:02:12.865Z,-3.93
2023-02-06T08:04:12.124Z,-3.87
2023-02-06T08:06:11.836Z,-3.82
2023-02-06T08:08:10.874Z,-3.93
2023-02-06T08:10:09.903Z,-3.75
2023-02-06T08:12:11.797Z,-3.51
2023-02-06T08:14:11.143Z,-3.48
2023-02-06T08:16:13.134Z,-3.07
2023-02-06T08:18:11.332Z,-3.03
2023-02-06T08:20:10.443Z,-2.80
2023-02-06T08:22:08.739Z,-2.51
2023-02-06T08:24:07.397Z,-1.58
2023-02-06T08:26:07.771Z,-1.38
2023-02-06T08:28:07.483Z,-1.38
2023-02-06T08:30:06.629Z,-0.21
2023-02-06T08:32:05.156Z,0.23
2023-02-06T08:34:03.698Z,1.49
2023-02-06T08:36:03.110Z,2.99
2023-02-06T08:38:02.218Z,3.68
2023-02-06T08:40:00.393Z,4.03
2023-02-06T08:41:58.628Z,3.68
2023-02-06T08:44:00.180Z,3.29
2023-02-06T08:45:59.582Z,3.23
2023-02-06T08:47:58.008Z,2.09
2023-02-06T08:49:56.325Z,2.15
2023-02-06T08:51:55.248Z,2.25
2023-02-06T08:53:53.851Z,1.87
2023-02-06T08:55:58.264Z,1.44
2023-02-06T08:57:56.477Z,1.10
2023-02-06T08:59:56.156Z,0.89
2023-02-06T09:01:54.298Z,2.14
2023-02-06T09:03:56.171Z,2.58
2023-02-06T09:06:09.428Z,3.18
2023-02-06T09:08:09.205Z,2.69
2023-02-06T09:10:16.223Z,1.43
2023-02-06T09:12:20.657Z,1.18
2023-02-06T09:14:20.357Z,2.06
2023-02-06T09:16:21.442Z,2.81
2023-02-06T09:18:20.101Z,2.87
2023-02-06T09:20:18.887Z,1.97
2023-02-06T09:22:17.279Z,2.22
2023-02-06T09:24:15.784Z,2.85
2023-02-06T09:26:15.581Z,2.60
2023-02-06T09:28:13.855Z,2.58
2023-02-06T09:30:14.353Z,3.05
2023-02-06T09:32:14.434Z,2.86
2023-02-06T09:34:13.749Z,4.45
2023-02-06T09:36:14.805Z,4.34
2023-02-06T09:38:13.228Z,5.18
2023-02-06T09:40:14.555Z,5.36
2023-02-06T09:42:18.606Z,5.12
2023-02-06T09:44:21.575Z,6.58
2023-02-06T09:46:23.612Z,6.15
2023-02-06T09:48:28.508Z,6.42
2023-02-06T09:50:31.503Z,7.05
2023-02-06T09:52:48.008Z,6.00
2023-02-06T09:54:59.229Z,6.90
2023-02-06T09:57:05.074Z,7.22
2023-02-06T09:59:11.121Z,8.93
2023-02-06T10:01:17.208Z,8.55
2023-02-06T10:03:40.155Z,8.33
2023-02-06T10:05:49.636Z,7.03
2023-02-06T10:08:03.202Z,6.27
2023-02-06T10:10:05.591Z,6.71
2023-02-06T10:12:08.716Z,6.37
2023-02-06T10:14:12.019Z,6.94
2023-02-06T10:16:21.463Z,6.40
2023-02-06T10:18:26.027Z,6.88
2023-02-06T10:20:35.804Z,5.67
2023-02-06T10:22:42.057Z,6.62
2023-02-06T10:24:45.191Z,5.05
2023-02-06T10:26:43.805Z,3.83
2023-02-06T10:28:42.217Z,1.91
2023-02-06T10:31:07.348Z,3.02
2023-02-06T10:33:25.393Z,4.71
2023-02-06T10:35:37.286Z,4.73
2023-02-06T10:38:08.578Z,4.52
2023-02-06T10:40:27.658Z,5.23
2023-02-06T10:42:39.475Z,5.07
2023-02-06T10:44:51.110Z,6.15
2023-02-06T10:46:55.125Z,7.10
2023-02-06T10:49:00.843Z,6.93
2023-02-06T10:51:05.040Z,5.96
2023-02-06T10:53:07.998Z,6.31
2023-02-06T10:55:17.322Z,7.46
2023-02-06T10:57:19.635Z,8.04
2023-02-06T10:59:23.712Z,8.15
2023-02-06T11:01:26.328Z,8.36
2023-02-06T11:03:30.481Z,7.79
2023-02-06T11:05:30.624Z,7.52
2023-02-06T11:07:32.861Z,7.55
2023-02-06T11:09:33.605Z,7.20
2023-02-06T11:11:34.056Z,4.99
2023-02-06T11:13:36.582Z,4.82
2023-02-06T11:15:39.310Z,4.89
2023-02-06T11:17:37.771Z,3.68
2023-02-06T11:19:40.533Z,2.24
2023-02-06T11:21:53.960Z,1.19
2023-02-06T11:24:09.769Z,0.65
2023-02-06T11:26:14.380Z,0.29
2023-02-06T11:28:18.714Z,0.05
2023-02-06T11:30:29.525Z,-0.25
2023-02-06T11:32:36.129Z,-0.30
2023-02-06T11:34:37.329Z,-0.39
2023-02-06T11:36:39.361Z,-0.26
2023-02-06T11:38:37.965Z,-0.19
2023-02-06T11:40:36.841Z,-0.45
2023-02-06T11:42:38.037Z,-0.65
2023-02-06T11:44:39.521Z,-0.76
2023-02-06T11:46:39.033Z,-0.81
2023-02-06T11:48:42.111Z,-0.77
2023-02-06T11:50:41.428Z,-1.13
2023-02-06T11:52:40.191Z,-1.39
2023-02-06T11:54:38.452Z,-1.38
2023-02-06T11:56:36.783Z,-1.53
2023-02-06T11:58:36.374Z,-1.48
2023-02-06T12:00:36.098Z,-1.66
2023-02-06T12:02:36.268Z,-1.61
2023-02-06T12:04:37.900Z,-1.82
2023-02-06T12:06:39.386Z,-1.71
2023-02-06T12:08:48.608Z,-1.79
2023-02-06T12:10:56.605Z,-1.81
2023-02-06T12:13:07.641Z,-1.75
2023-02-06T12:15:36.157Z,-1.86
2023-02-06T12:17:35.283Z,-1.90
2023-02-06T12:19:44.660Z,-1.90
2023-02-06T12:21:55.097Z,-2.05
2023-02-06T12:23:57.109Z,-2.19
2023-02-06T12:26:00.947Z,-2.14
2023-02-06T12:28:09.768Z,-2.35
2023-02-06T12:30:27.615Z,-2.31
2023-02-06T12:32:33.211Z,-2.08
2023-02-06T12:34:44.252Z,-1.86
2023-02-06T12:36:53.659Z,-1.80
2023-02-06T12:38:57.153Z,-1.84
2023-02-06T12:41:15.281Z,-2.21
2023-02-06T12:43:15.757Z,-2.28
2023-02-06T12:45:36.339Z,-2.40
2023-02-06T12:47:42.122Z,-2.38
2023-02-06T12:49:46.652Z,-2.38
2023-02-06T12:51:50.913Z,-2.25
2023-02-06T12:53:52.908Z,-2.17
2023-02-06T12:55:57.733Z,-2.04
2023-02-06T12:57:58.528Z,-2.08
2023-02-06T13:00:35.593Z,-2.15
2023-02-06T13:02:57.861Z,-2.25
2023-02-06T13:04:56.995Z,-2.23
2023-02-06T13:06:59.924Z,-2.28
2023-02-06T13:09:00.827Z,-2.36
2023-02-06T13:11:04.426Z,-2.38
2023-02-06T13:13:03.028Z,-2.51
2023-02-06T13:15:05.726Z,-2.59
2023-02-06T13:17:11.896Z,-2.52
2023-02-06T13:19:26.087Z,-2.31
2023-02-06T13:21:28.709Z,-2.24
2023-02-06T13:23:27.050Z,-2.26
2023-02-06T13:25:51.950Z,-2.39
2023-02-06T13:27:50.392Z,-2.53
2023-02-06T13:29:49.515Z,-2.60
2023-02-06T13:31:47.766Z,-2.72
2023-02-06T13:33:52.264Z,-2.77
2023-02-06T13:35:58.389Z,-2.87
2023-02-06T13:38:28.114Z,-3.13
2023-02-06T13:40:32.315Z,-3.25
2023-02-06T13:42:44.978Z,-3.29
2023-02-06T13:44:43.768Z,-3.26
2023-02-06T13:47:18.825Z,-3.26
2023-02-06T13:49:42.186Z,-3.33
2023-02-06T13:51:53.052Z,-3.41
2023-02-06T13:54:20.089Z,-3.50
2023-02-06T13:56:45.922Z,-3.57
2023-02-06T13:58:49.286Z,-3.63
2023-02-06T14:00:50.775Z,-3.62
2023-02-06T14:02:52.296Z,-3.68
2023-02-06T14:04:52.693Z,-3.69
2023-02-06T14:07:07.637Z,-3.66
2023-02-06T14:09:12.245Z,-3.55
2023-02-06T14:11:24.109Z,-3.46
2023-02-06T14:13:35.780Z,-3.38
2023-02-06T14:15:40.929Z,-3.33
2023-02-06T14:17:50.153Z,-3.47
2023-02-06T14:19:56.121Z,-3.59
2023-02-06T14:22:04.397Z,-3.68
2023-02-06T14:24:28.726Z,-3.71
2023-02-06T14:26:37.908Z,-3.79
2023-02-06T14:28:50.958Z,-3.75
2023-02-06T14:30:59.618Z,-3.67
2023-02-06T14:33:09.137Z,-3.66
2023-02-06T14:35:22.107Z,-3.68
2023-02-06T14:40:22.924Z,-3.69
2023-02-06T14:42:27.174Z,-3.79
2023-02-06T14:44:30.030Z,-3.91
2023-02-06T14:46:30.361Z,-3.94
2023-02-06T14:48:33.100Z,-4.01
2023-02-06T14:50:36.096Z,-4.07
2023-02-06T14:52:35.747Z,-4.04
2023-02-06T14:54:35.591Z,-4.01
2023-02-06T14:56:36.587Z,-3.94
2023-02-06T14:58:35.170Z,-3.95
2023-02-06T15:00:34.206Z,-4.00
2023-02-06T15:02:33.989Z,-4.00
2023-02-06T15:04:32.122Z,-3.94
2023-02-06T15:06:34.934Z,-3.98
2023-02-06T15:08:34.028Z,-3.98
2023-02-06T15:10:36.673Z,-4.02
2023-02-06T15:12:35.965Z,-4.03
2023-02-06T15:14:36.105Z,-4.08
2023-02-06T15:16:46.898Z,-4.15
2023-02-06T15:18:45.588Z,-4.18
2023-02-06T15:20:46.434Z,-4.21
2023-02-06T15:22:46.165Z,-4.22
2023-02-06T15:24:57.139Z,-4.27
2023-02-06T15:27:04.001Z,-4.30
2023-02-06T15:29:04.198Z,-4.33
2023-02-06T15:31:03.028Z,-4.36
2023-02-06T15:33:02.106Z,-4.40
2023-02-06T15:35:01.048Z,-4.45
2023-02-06T15:36:59.349Z,-4.45
2023-02-06T15:38:59.670Z,-4.49
2023-02-06T15:41:02.226Z,-4.49
2023-02-06T15:43:01.462Z,-4.52
2023-02-06T15:45:00.186Z,-4.59
2023-02-06T15:46:59.303Z,-4.61
2023-02-06T15:48:58.504Z,-4.60
2023-02-06T15:50:59.519Z,-4.65
2023-02-06T15:52:57.693Z,-4.65
2023-02-06T15:55:00.753Z,-4.67
2023-02-06T15:57:04.883Z,-4.65
2023-02-06T15:59:06.568Z,-4.66
2023-02-06T16:01:06.884Z,-4.61
2023-02-06T16:03:08.354Z,-4.59
2023-02-06T16:05:12.331Z,-4.59
2023-02-06T16:07:16.953Z,-4.60
2023-02-06T16:09:22.586Z,-4.63
2023-02-06T16:11:40.134Z,-4.63
2023-02-06T16:13:39.088Z,-4.63
2023-02-06T16:15:39.321Z,-4.66
2023-02-06T16:17:41.308Z,-4.69
2023-02-06T16:19:46.706Z,-4.73
2023-02-06T16:21:44.822Z,-4.75
2023-02-06T16:23:47.543Z,-4.80
2023-02-06T16:25:47.149Z,-4.84
2023-02-06T16:27:47.373Z,-4.87
2023-02-06T16:29:50.303Z,-4.89
2023-02-06T16:31:58.243Z,-4.96
2023-02-06T16:34:03.722Z,-4.97
2023-02-06T16:36:02.123Z,-4.95
2023-02-06T16:38:00.322Z,-4.95
2023-02-06T16:39:58.496Z,-4.95
2023-02-06T16:41:56.724Z,-4.96
2023-02-06T16:43:58.855Z,-4.98
2023-02-06T16:45:59.584Z,-4.98
2023-02-06T16:47:58.018Z,-4.98
2023-02-06T16:49:56.635Z,-5.00
2023-02-06T16:51:55.395Z,-5.02
2023-02-06T16:53:53.932Z,-5.03
2023-02-06T16:55:53.376Z,-5.01
2023-02-06T16:57:54.519Z,-4.98
2023-02-06T16:59:54.319Z,-5.02
2023-02-06T17:01:52.423Z,-5.04
2023-02-06T17:03:50.954Z,-5.04
2023-02-06T17:05:53.081Z,-5.05
2023-02-06T17:07:55.849Z,-5.08
2023-02-06T17:09:57.383Z,-5.04
2023-02-06T17:11:55.594Z,-5.07
2023-02-06T17:13:54.438Z,-5.10
2023-02-06T17:15:54.654Z,-5.10
2023-02-06T17:17:54.965Z,-5.08
2023-02-06T17:19:53.439Z,-5.03
2023-02-06T17:21:51.899Z,-5.13
2023-02-06T17:23:51.616Z,-5.12
2023-02-06T17:25:51.201Z,-5.13
2023-02-06T17:27:50.002Z,-5.13
2023-02-06T17:29:48.918Z,-5.14
2023-02-06T17:31:49.092Z,-5.17
2023-02-06T17:33:47.585Z,-5.12
2023-02-06T17:35:48.471Z,-5.07
2023-02-06T17:37:47.166Z,-5.11
2023-02-06T17:39:45.776Z,-5.12
2023-02-06T17:41:44.153Z,-5.15
2023-02-06T17:43:42.658Z,-5.20
2023-02-06T17:45:42.008Z,-5.22
2023-02-06T17:47:42.154Z,-5.23
2023-02-06T17:49:40.745Z,-5.24
2023-02-06T17:51:41.624Z,-5.25
2023-02-06T17:53:40.316Z,-5.27
2023-02-06T17:55:38.777Z,-5.26
2023-02-06T17:57:38.113Z,-5.32
2023-02-06T17:59:36.505Z,-5.31
2023-02-06T18:01:35.174Z,-5.29
2023-02-06T18:03:35.852Z,-5.27
2023-02-06T18:05:34.843Z,-5.32
2023-02-06T18:07:33.519Z,-5.33
2023-02-06T18:09:31.888Z,-5.32
2023-02-06T18:11:30.478Z,-5.22
2023-02-06T18:13:29.270Z,-5.22
2023-02-06T18:15:29.360Z,-5.19
2023-02-06T18:17:29.381Z,-5.23
2023-02-06T18:19:41.479Z,-5.26
2023-02-06T18:21:40.679Z,-5.22
2023-02-06T18:23:42.588Z,-5.23
2023-02-06T18:25:43.447Z,-5.20
2023-02-06T18:27:42.893Z,-5.14
2023-02-06T18:29:49.682Z,-5.18
2023-02-06T18:31:49.912Z,-5.24
2023-02-06T18:33:48.304Z,-5.25
2023-02-06T18:35:50.824Z,-5.25
2023-02-06T18:37:50.161Z,-5.24
2023-02-06T18:39:48.530Z,-5.26
2023-02-06T18:42:03.963Z,-5.24
2023-02-06T18:44:03.115Z,-5.23
2023-02-06T18:46:07.754Z,-5.24
2023-02-06T18:48:08.541Z,-5.25
2023-02-06T18:50:07.450Z,-5.26
2023-02-06T18:52:07.883Z,-5.24
2023-02-06T18:54:07.948Z,-5.24
2023-02-06T18:56:06.498Z,-5.17
2023-02-06T18:58:06.039Z,-5.13
2023-02-06T19:00:05.817Z,-5.10
2023-02-06T19:02:04.537Z,-5.08
2023-02-06T19:04:02.832Z,-5.11
2023-02-06T19:06:01.097Z,-5.14
2023-02-06T19:08:00.814Z,-5.15
2023-02-06T19:10:00.404Z,-5.14
2023-02-06T19:11:58.723Z,-5.12
2023-02-06T19:13:57.094Z,-5.16
2023-02-06T19:16:05.960Z,-5.20
2023-02-06T19:18:05.613Z,-5.20
2023-02-06T19:20:06.230Z,-5.17
2023-02-06T19:22:04.682Z,-5.17
2023-02-06T19:24:05.948Z,-5.16
2023-02-06T19:26:07.079Z,-5.17
2023-02-06T19:28:05.536Z,-5.12
2023-02-06T19:30:04.856Z,-5.12
2023-02-06T19:32:03.689Z,-5.10
2023-02-06T19:34:03.020Z,-5.07
2023-02-06T19:36:06.126Z,-4.96
2023-02-06T19:38:04.437Z,-4.96
2023-02-06T19:40:04.077Z,-4.99
2023-02-06T19:42:04.577Z,-5.02
2023-02-06T19:44:06.910Z,-5.05
2023-02-06T19:46:05.948Z,-5.09
2023-02-06T19:48:06.538Z,-5.11
2023-02-06T19:50:05.947Z,-5.18
2023-02-06T19:52:04.474Z,-5.17
2023-02-06T19:54:02.839Z,-5.19
2023-02-06T19:56:02.853Z,-5.17
2023-02-06T19:58:01.145Z,-5.15
2023-02-06T20:00:00.801Z,-5.13
2023-02-06T20:02:01.496Z,-5.16
2023-02-06T20:04:01.631Z,-5.16
2023-02-06T20:06:02.425Z,-5.14
2023-02-06T20:08:01.242Z,-5.17
2023-02-06T20:09:59.442Z,-5.18
2023-02-06T20:11:59.191Z,-5.21
2023-02-06T20:13:58.462Z,-5.19
2023-02-06T20:15:57.596Z,-5.22
2023-02-06T20:17:56.071Z,-5.24
2023-02-06T20:19:54.448Z,-5.26
2023-02-06T20:21:57.881Z,-5.22
2023-02-06T20:23:57.589Z,-5.18
2023-02-06T20:25:56.193Z,-5.19
2023-02-06T20:27:55.849Z,-5.24
2023-02-06T20:29:54.464Z,-5.25
2023-02-06T20:31:54.186Z,-5.29
2023-02-06T20:33:52.852Z,-5.35
2023-02-06T20:35:51.024Z,-5.34
2023-02-06T20:37:49.293Z,-5.32
2023-02-06T20:39:47.535Z,-5.35
2023-02-06T20:41:46.208Z,-5.37
2023-02-06T20:43:48.752Z,-5.34
2023-02-06T20:45:47.180Z,-5.36
2023-02-06T20:47:45.587Z,-5.36
2023-02-06T20:49:43.957Z,-5.40
2023-02-06T20:51:42.451Z,-5.36
2023-02-06T20:53:41.041Z,-5.38
2023-02-06T20:55:41.795Z,-5.39
2023-02-06T20:57:39.951Z,-5.39
2023-02-06T20:59:39.654Z,-5.42
2023-02-06T21:01:37.896Z,-5.44
2023-02-06T21:03:39.002Z,-5.46
2023-02-06T21:05:37.344Z,-5.49
2023-02-06T21:07:35.838Z,-5.48
2023-02-06T21:09:34.400Z,-5.48
2023-02-06T21:11:35.248Z,-5.52
2023-02-06T21:13:35.041Z,-5.53
2023-02-06T21:15:45.956Z,-5.49
2023-02-06T21:17:44.566Z,-5.53
2023-02-06T21:19:42.792Z,-5.63
2023-02-06T21:21:45.677Z,-5.68
2023-02-06T21:23:44.908Z,-5.66
2023-02-06T21:25:43.183Z,-5.72
2023-02-06T21:27:41.989Z,-5.76
2023-02-06T21:29:40.507Z,-5.78
2023-02-06T21:31:40.435Z,-5.81
2023-02-06T21:33:39.337Z,-5.72
2023-02-06T21:35:39.675Z,-5.62
2023-02-06T21:37:38.041Z,-5.63
2023-02-06T21:39:38.895Z,-5.68
2023-02-06T21:41:37.982Z,-5.74
2023-02-06T21:43:36.777Z,-5.78
2023-02-06T21:45:35.129Z,-5.80
2023-02-06T21:47:35.895Z,-5.77
2023-02-06T21:49:34.223Z,-5.80
2023-02-06T21:51:32.538Z,-5.76
2023-02-06T21:53:31.000Z,-5.75
2023-02-06T21:55:33.654Z,-5.75
2023-02-06T21:57:32.631Z,-5.80
2023-02-06T21:59:34.046Z,-5.81
2023-02-06T22:01:34.381Z,-5.76
2023-02-06T22:03:37.447Z,-5.82
2023-02-06T22:05:36.203Z,-5.82
2023-02-06T22:07:36.256Z,-5.76
2023-02-06T22:09:34.533Z,-5.72
2023-02-06T22:11:33.458Z,-5.72
2023-02-06T22:13:32.213Z,-5.69
2023-02-06T22:15:30.508Z,-5.64
2023-02-06T22:17:30.370Z,-5.62
2023-02-06T22:19:30.352Z,-5.61
2023-02-06T22:21:30.727Z,-5.56
2023-02-06T22:23:28.926Z,-5.55
2023-02-06T22:25:28.475Z,-5.54
2023-02-06T22:27:26.845Z,-5.49
2023-02-06T22:29:25.328Z,-5.41
2023-02-06T22:31:25.410Z,-5.40
2023-02-06T22:33:24.277Z,-5.38
2023-02-06T22:35:24.171Z,-5.35
2023-02-06T22:37:22.753Z,-5.26
2023-02-06T22:39:21.549Z,-5.26
2023-02-06T22:41:20.106Z,-5.23
2023-02-06T22:43:18.332Z,-5.28
2023-02-06T22:45:16.581Z,-5.27
2023-02-06T22:47:14.854Z,-5.24
2023-02-06T22:49:13.610Z,-5.28
2023-02-06T22:51:13.760Z,-5.27
2023-02-06T22:53:30.219Z,-5.19
2023-02-06T22:55:49.016Z,-5.22
2023-02-06T22:57:47.249Z,-5.24
2023-02-06T22:59:45.963Z,-5.24
2023-02-06T23:01:49.963Z,-5.27
2023-02-06T23:03:57.766Z,-5.28
2023-02-06T23:05:57.151Z,-5.28
2023-02-06T23:07:56.948Z,-5.28
2023-02-06T23:09:55.585Z,-5.28
2023-02-06T23:12:00.316Z,-5.26
2023-02-06T23:14:00.812Z,-5.26
2023-02-06T23:15:59.618Z,-5.24
2023-02-06T23:17:57.814Z,-5.25
2023-02-06T23:19:56.126Z,-5.21
2023-02-06T23:21:54.629Z,-5.25
2023-02-06T23:23:56.198Z,-5.25
2023-02-06T23:25:54.979Z,-5.19
2023-02-06T23:27:53.170Z,-5.24
2023-02-06T23:29:51.590Z,-5.25
2023-02-06T23:31:50.886Z,-5.25
2023-02-06T23:33:49.193Z,-5.26
2023-02-06T23:35:47.885Z,-5.29
2023-02-06T23:37:46.168Z,-5.26
2023-02-06T23:39:45.986Z,-5.26
2023-02-06T23:41:44.396Z,-5.28
2023-02-06T23:43:42.692Z,-5.31
2023-02-06T23:45:41.698Z,-5.32
2023-02-06T23:47:40.201Z,-5.35
2023-02-06T23:49:38.478Z,-5.32
2023-02-06T23:51:38.110Z,-5.32
2023-02-06T23:53:36.557Z,-5.28
2023-02-06T23:55:36.537Z,-5.32
2023-02-06T23:57:36.052Z,-5.29
2023-02-06T23:59:34.199Z,-5.28
